Time;durP1;ratioP1;P1;durP2;ratioP2;P2;SDS_P1;SDS_P2;PMS_P1;PMS_P2;Temp;Humidity;BMP_temperature;BMP_pressure;BME280_temperature;BME280_humidity;BME280_pressure;Samples;Min_cycle;Max_cycle;Signal;HPM_P1;HPM_P2
2022/12/14 00:16:28;;;;;;;12.63;8.90;;;;;;;-3.63;76.45;94269.13;6066452;23;20982;-92
2022/12/14 00:43:36;;;;;;;;;;;;;;;;;;;;;
2022/12/14 01:37:43;;;;;;;14.73;10.80;;;;;;;-2.29;73.17;94288.16;5999644;23;20208;-93
2022/12/14 02:23:02;;;;;;;;;;;;;;;;;;;;;
2022/12/14 02:54:12;;;;;;;15.43;11.20;;;;;;;-2.77;76.35;94238.50;6009954;23;20210;-91
2022/12/14 04:39:39;;;;;;;;;;;;;;;;;;;;;
2022/12/14 04:56:05;;;;;;;16.90;12.47;;;;;;;-2.47;77.42;94132.59;6116729;23;20179;-81
2022/12/14 04:58:32;;;;;;;15.83;11.97;;;;;;;-2.39;76.73;94133.66;6121279;23;20174;-80
2022/12/14 05:01:15;;;;;;;16.30;11.97;;;;;;;-2.19;76.13;94136.00;6122240;23;20188;-80
2022/12/14 05:03:51;;;;;;;15.60;11.77;;;;;;;-2.00;75.47;94129.34;6122154;23;20199;-82
2022/12/14 05:06:24;;;;;;;17.07;12.07;;;;;;;-2.06;75.12;94139.97;6122231;23;20605;-80
2022/12/14 05:09:12;;;;;;;15.87;11.90;;;;;;;-2.15;75.06;94132.31;6121624;23;20166;-80
2022/12/14 05:11:47;;;;;;;17.30;12.80;;;;;;;-2.13;75.73;94139.72;6122047;23;20238;-80
2022/12/14 05:14:19;;;;;;;18.43;12.63;;;;;;;-2.17;75.72;94131.63;6122889;23;20198;-81
2022/12/14 05:16:46;;;;;;;16.93;12.83;;;;;;;-2.10;75.52;94129.34;6122395;23;20219;-82
2022/12/14 05:19:14;;;;;;;17.73;11.93;;;;;;;-2.14;75.65;94120.50;6121351;23;20184;-82
2022/12/14 05:21:47;;;;;;;17.50;12.60;;;;;;;-2.24;75.69;94122.22;6122478;23;20614;-80
2022/12/14 05:24:14;;;;;;;17.07;12.77;;;;;;;-2.22;75.98;94133.75;6122599;23;20254;-79
2022/12/14 05:26:42;;;;;;;17.20;12.77;;;;;;;-2.17;76.05;94130.84;6122536;23;20198;-81
2022/12/14 05:29:09;;;;;;;17.37;12.73;;;;;;;-2.07;75.67;94134.13;6122638;23;20180;-82
2022/12/14 05:31:35;;;;;;;18.00;12.87;;;;;;;-2.13;75.90;94135.50;6122186;23;20491;-82
2022/12/14 05:34:02;;;;;;;16.13;12.47;;;;;;;-2.08;76.25;94123.25;6122277;23;20211;-80
2022/12/14 05:36:28;;;;;;;16.10;12.60;;;;;;;-2.04;76.98;94122.97;6122970;23;20179;-80
2022/12/14 05:38:55;;;;;;;19.37;12.43;;;;;;;-2.04;76.09;94120.47;6117921;23;20190;-80
2022/12/14 05:41:21;;;;;;;18.27;12.50;;;;;;;-1.99;75.93;94113.28;6121053;23;20190;-82
2022/12/14 05:43:49;;;;;;;16.17;12.03;;;;;;;-1.98;76.06;94107.31;6122510;23;20528;-82
2022/12/14 05:46:15;;;;;;;15.30;12.00;;;;;;;-1.98;75.59;94102.28;6122782;23;20167;-81
2022/12/14 05:48:42;;;;;;;15.87;12.30;;;;;;;-1.97;76.04;94096.31;6122451;23;20183;-81
2022/12/14 05:51:10;;;;;;;21.90;12.87;;;;;;;-1.94;75.87;94093.50;6122105;23;20180;-82
2022/12/14 05:53:37;;;;;;;16.20;12.33;;;;;;;-1.86;75.82;94101.16;6121792;23;20200;-82
2022/12/14 05:56:05;;;;;;;15.03;11.63;;;;;;;-1.81;75.98;94102.34;6122450;23;20282;-82
2022/12/14 05:58:32;;;;;;;18.70;12.43;;;;;;;-1.82;75.31;94088.16;6123995;23;20187;-82
2022/12/14 06:01:01;;;;;;;16.40;12.23;;;;;;;-1.88;75.81;94082.84;6123494;23;20179;-81
2022/12/14 06:03:28;;;;;;;20.20;12.60;;;;;;;-1.94;76.36;94070.81;6123913;23;20206;-80
2022/12/14 06:05:54;;;;;;;16.60;12.53;;;;;;;-1.98;76.46;94070.28;6124134;23;20176;-82
2022/12/14 06:08:21;;;;;;;14.70;12.17;;;;;;;-2.00;77.07;94077.19;6122984;23;20565;-81
2022/12/14 06:10:47;;;;;;;16.40;12.70;;;;;;;-2.00;76.81;94064.59;6124093;23;20186;-81
2022/12/14 06:13:14;;;;;;;16.77;12.67;;;;;;;-1.95;76.96;94062.44;6123606;23;20187;-80
2022/12/14 06:15:40;;;;;;;17.70;12.73;;;;;;;-1.82;76.83;94062.13;6123888;23;20262;-80
2022/12/14 06:18:08;;;;;;;16.67;12.97;;;;;;;-1.90;77.13;94067.06;6123727;23;20179;-80
2022/12/14 06:20:35;;;;;;;18.37;12.17;;;;;;;-1.99;77.32;94076.25;6124267;23;20182;-82
2022/12/14 06:23:01;;;;;;;18.30;13.13;;;;;;;-1.96;77.11;94082.75;6123650;23;20252;-81
2022/12/14 06:25:27;;;;;;;16.67;12.57;;;;;;;-1.98;77.51;94075.34;6124144;23;20250;-80
2022/12/14 06:27:54;;;;;;;16.13;12.10;;;;;;;-2.04;78.22;94072.56;6123977;23;20490;-80
2022/12/14 06:30:21;;;;;;;16.47;13.13;;;;;;;-2.11;78.31;94063.00;6124275;23;20304;-81
2022/12/14 06:32:47;;;;;;;18.27;12.70;;;;;;;-2.13;78.46;94054.03;6123891;23;20178;-81
2022/12/14 06:35:15;;;;;;;18.90;13.23;;;;;;;-2.05;78.92;94060.88;6123506;23;20219;-83
2022/12/14 06:37:41;;;;;;;16.60;12.47;;;;;;;-2.11;79.49;94062.22;6123750;23;20242;-84
2022/12/14 06:40:09;;;;;;;20.33;13.33;;;;;;;-2.05;79.55;94065.94;6124054;23;20171;-83
2022/12/14 06:42:36;;;;;;;32.83;16.57;;;;;;;-2.01;87.18;94065.50;6124185;23;20183;-83
2022/12/14 06:45:02;;;;;;;17.93;13.70;;;;;;;-1.94;82.60;94048.13;6123156;23;20543;-83
2022/12/14 06:47:29;;;;;;;19.63;14.37;;;;;;;-1.96;82.35;94053.28;6124395;23;20201;-81
2022/12/14 06:49:58;;;;;;;18.60;13.10;;;;;;;-1.99;82.69;94051.03;6123749;23;20513;-81
2022/12/14 06:52:26;;;;;;;21.33;14.40;;;;;;;-2.07;82.88;94050.94;6124099;23;20175;-80
2022/12/14 06:54:53;;;;;;;20.20;14.83;;;;;;;-2.14;84.14;94040.63;6123323;23;20250;-80
2022/12/14 06:57:19;;;;;;;18.47;13.23;;;;;;;-2.15;85.15;94041.56;6124309;23;20183;-79
2022/12/14 06:59:45;;;;;;;17.57;13.07;;;;;;;-2.18;85.65;94041.03;6123929;23;20175;-81
2022/12/14 07:02:12;;;;;;;18.77;13.47;;;;;;;-2.17;84.97;94032.53;6123161;23;20179;-81
2022/12/14 07:04:38;;;;;;;19.03;13.20;;;;;;;-2.21;85.19;94029.50;6123592;23;20196;-82
2022/12/14 07:07:05;;;;;;;19.40;14.03;;;;;;;-2.07;85.06;94035.81;6123835;23;20186;-82
2022/12/14 07:09:33;;;;;;;18.50;13.80;;;;;;;-2.01;84.87;94032.75;6122579;23;20194;-82
2022/12/14 07:11:59;;;;;;;17.37;14.13;;;;;;;-1.99;85.46;94025.84;6123590;23;20365;-81
2022/12/14 07:14:26;;;;;;;18.13;14.07;;;;;;;-2.18;86.36;94030.94;6123974;23;20199;-81
2022/12/14 07:16:52;;;;;;;20.97;14.83;;;;;;;-2.12;86.67;94022.84;6123790;23;20179;-82
2022/12/14 07:19:18;;;;;;;20.23;14.73;;;;;;;-2.10;87.15;94023.47;6122963;23;20180;-82
2022/12/14 07:21:45;;;;;;;21.27;14.70;;;;;;;-2.05;87.51;94016.28;6124074;23;20183;-81
2022/12/14 07:24:11;;;;;;;20.57;14.20;;;;;;;-2.02;87.10;94021.06;6124473;23;20399;-81
2022/12/14 07:26:39;;;;;;;20.13;14.20;;;;;;;-1.93;86.28;94022.75;6125477;23;20251;-81
2022/12/14 07:29:07;;;;;;;20.27;14.33;;;;;;;-1.89;85.47;94028.31;6122563;23;20180;-82
2022/12/14 07:31:33;;;;;;;21.70;15.37;;;;;;;-2.02;87.10;94025.31;6124004;23;20556;-80
2022/12/14 07:34:01;;;;;;;19.50;14.53;;;;;;;-2.14;88.77;94012.91;6123093;23;20665;-80
2022/12/14 07:36:29;;;;;;;20.53;15.10;;;;;;;-2.05;88.66;94007.94;6122602;23;20175;-79
2022/12/14 07:38:56;;;;;;;19.77;15.10;;;;;;;-1.91;87.34;94004.94;6121903;23;20179;-82
2022/12/14 07:41:25;;;;;;;19.67;14.57;;;;;;;-1.94;88.05;94008.56;6123235;23;20187;-80
2022/12/14 07:43:54;;;;;;;20.37;15.73;;;;;;;-2.02;89.38;94007.66;6123317;23;20206;-82
2022/12/14 07:46:23;;;;;;;21.70;15.13;;;;;;;-2.01;88.82;93999.97;6123194;23;20187;-80
2022/12/14 07:48:51;;;;;;;19.50;14.77;;;;;;;-1.96;89.25;93995.31;6123197;23;20175;-81
2022/12/14 07:51:20;;;;;;;18.83;14.43;;;;;;;-1.89;88.42;94001.34;6123055;23;20184;-81
2022/12/14 07:53:47;;;;;;;21.30;15.63;;;;;;;-1.92;89.13;94005.88;6123593;23;20199;-82
2022/12/14 07:56:17;;;;;;;20.47;15.53;;;;;;;-1.95;90.02;94008.72;6123092;23;20176;-82
2022/12/14 07:58:44;;;;;;;20.53;14.93;;;;;;;-2.10;91.27;93996.53;6122875;23;20160;-81
2022/12/14 08:01:14;;;;;;;22.13;15.50;;;;;;;-2.15;93.74;94001.22;6124096;23;20182;-82
2022/12/14 08:03:43;;;;;;;20.23;15.13;;;;;;;-2.18;93.59;94000.69;6123153;23;20196;-80
2022/12/14 08:06:11;;;;;;;21.60;15.03;;;;;;;-2.16;93.21;93998.84;6123646;23;20175;-82
2022/12/14 08:08:38;;;;;;;22.57;15.87;;;;;;;-2.12;93.89;93997.63;6122692;23;20176;-80
2022/12/14 08:11:05;;;;;;;23.73;15.87;;;;;;;-2.08;94.82;93986.31;6123418;23;20186;-82
2022/12/14 08:13:32;;;;;;;23.37;15.03;;;;;;;-2.00;93.59;93986.44;6122749;23;20529;-82
2022/12/14 08:16:03;;;;;;;22.13;14.73;;;;;;;-1.97;92.88;93980.31;6123572;23;20199;-82
2022/12/14 08:18:34;;;;;;;21.33;15.80;;;;;;;-1.97;93.67;93978.59;6122865;23;20176;-82
2022/12/14 08:21:00;;;;;;;20.93;15.83;;;;;;;-2.02;93.41;93973.16;6122200;23;20167;-82
2022/12/14 08:23:27;;;;;;;22.00;15.67;;;;;;;-2.00;95.03;93973.81;6123555;23;20629;-81
2022/12/14 08:25:54;;;;;;;19.97;14.90;;;;;;;-2.00;94.04;93967.97;6123284;23;20175;-82
2022/12/14 08:28:22;;;;;;;19.33;14.33;;;;;;;-2.03;93.53;93965.75;6123147;23;20180;-82
2022/12/14 08:30:48;;;;;;;22.33;16.00;;;;;;;-2.02;94.60;93959.75;6122929;23;20159;-80
2022/12/14 08:33:14;;;;;;;21.77;15.17;;;;;;;-2.04;95.06;93961.63;6123055;23;20171;-81
2022/12/14 08:35:44;;;;;;;21.53;15.47;;;;;;;-1.95;94.96;93970.88;6122623;23;20205;-81
2022/12/14 08:38:11;;;;;;;23.23;14.57;;;;;;;-1.88;95.70;93951.72;6122787;23;20187;-80
2022/12/14 08:40:37;;;;;;;22.37;15.33;;;;;;;-1.73;93.88;93949.53;6122364;23;20176;-82
2022/12/14 08:43:05;;;;;;;21.90;15.63;;;;;;;-1.65;92.83;93957.94;6123020;23;20180;-83
2022/12/14 08:45:31;;;;;;;23.13;15.40;;;;;;;-1.53;91.54;93954.28;6123399;23;20195;-81
2022/12/14 08:47:58;;;;;;;21.23;15.00;;;;;;;-1.41;90.97;93959.91;6122636;23;20186;-81
2022/12/14 08:50:24;;;;;;;21.50;15.43;;;;;;;-1.40;91.56;93957.25;6123287;23;20171;-82
2022/12/14 08:52:53;;;;;;;18.03;14.00;;;;;;;-1.40;93.82;93953.94;6123340;23;20179;-82
2022/12/14 08:55:20;;;;;;;21.90;15.40;;;;;;;-1.31;94.15;93955.56;6123284;23;20211;-82
2022/12/14 08:57:46;;;;;;;24.00;16.10;;;;;;;-1.24;95.40;93940.66;6122867;23;20187;-81
2022/12/14 09:00:14;;;;;;;23.70;15.40;;;;;;;-1.09;93.82;93934.13;6122950;23;20206;-81
2022/12/14 09:02:40;;;;;;;22.07;16.80;;;;;;;-0.95;93.09;93926.03;6122602;23;20210;-80
2022/12/14 09:05:08;;;;;;;21.97;15.87;;;;;;;-1.02;92.96;93925.06;6123116;23;20192;-81
2022/12/14 09:07:35;;;;;;;21.03;15.47;;;;;;;-0.93;93.25;93928.41;6122949;23;20182;-81
2022/12/14 09:10:03;;;;;;;22.90;16.37;;;;;;;-0.84;92.91;93927.53;6122007;23;20187;-82
2022/12/14 09:12:29;;;;;;;22.53;15.23;;;;;;;-0.96;93.34;93921.16;6122506;23;20175;-82
2022/12/14 09:14:56;;;;;;;23.83;16.20;;;;;;;-0.95;93.97;93933.59;6122617;23;20210;-81
2022/12/14 09:17:22;;;;;;;22.03;16.93;;;;;;;-0.94;93.32;93930.13;6122658;23;20176;-80
2022/12/14 09:19:49;;;;;;;21.30;15.57;;;;;;;-0.93;93.20;93925.88;6121851;23;20180;-81
2022/12/14 09:22:15;;;;;;;55.40;36.80;;;;;;;-0.84;92.65;93913.16;6123677;23;20189;-82
2022/12/14 09:24:42;;;;;;;35.97;24.70;;;;;;;-0.85;93.14;93920.91;6123052;23;20512;-81
2022/12/14 09:27:09;;;;;;;22.47;16.73;;;;;;;-0.92;93.83;93917.38;6121985;23;20214;-81
2022/12/14 09:29:36;;;;;;;22.97;16.30;;;;;;;-0.95;94.29;93930.28;6122437;23;20183;-81
2022/12/14 09:32:02;;;;;;;24.50;15.87;;;;;;;-1.03;94.11;93926.00;6123506;23;20175;-82
2022/12/14 09:34:29;;;;;;;23.27;15.77;;;;;;;-1.18;95.82;93930.78;6124839;23;20207;-81
2022/12/14 09:36:55;;;;;;;24.37;17.30;;;;;;;-1.09;95.38;93929.88;6124213;23;20258;-80
2022/12/14 09:39:22;;;;;;;22.23;16.10;;;;;;;-1.03;94.86;93915.88;6124782;23;20183;-82
2022/12/14 09:41:57;;;;;;;23.33;16.53;;;;;;;-1.02;94.96;93901.53;6124312;23;20191;-81
2022/12/14 09:44:36;;;;;;;25.60;16.83;;;;;;;-1.06;97.39;93895.97;6124240;23;20210;-82
2022/12/14 09:47:10;;;;;;;21.90;16.10;;;;;;;-1.05;97.58;93892.50;6124054;23;20171;-81
2022/12/14 09:49:42;;;;;;;22.80;16.10;;;;;;;-1.05;97.61;93890.00;6124113;23;20189;-82
2022/12/14 09:52:14;;;;;;;21.70;15.67;;;;;;;-1.10;98.07;93882.84;6124803;23;20726;-81
2022/12/14 09:54:44;;;;;;;24.00;17.10;;;;;;;-1.09;99.57;93871.00;6124754;23;20290;-82
2022/12/14 09:57:25;;;;;;;22.53;15.50;;;;;;;-0.98;98.68;93870.00;6124141;23;20171;-81
2022/12/14 09:59:54;;;;;;;24.97;16.90;;;;;;;-0.93;99.47;93858.50;6124096;23;20211;-82
2022/12/14 10:02:37;;;;;;;26.17;16.93;;;;;;;-0.80;98.36;93860.63;6123901;23;20180;-81
2022/12/14 10:05:24;;;;;;;24.83;16.63;;;;;;;-0.63;96.61;93852.19;6123958;23;20195;-82
2022/12/14 10:08:01;;;;;;;20.73;16.60;;;;;;;-0.53;97.06;93855.38;6122998;23;20180;-79
2022/12/14 10:10:36;;;;;;;26.97;17.63;;;;;;;-0.56;96.85;93850.59;6124231;23;20214;-81
2022/12/14 10:13:09;;;;;;;24.47;16.53;;;;;;;-0.59;97.02;93845.09;6124996;23;20190;-81
2022/12/14 10:15:42;;;;;;;24.87;16.70;;;;;;;-0.50;96.29;93839.09;6123657;23;20237;-80
2022/12/14 10:18:30;;;;;;;24.10;17.30;;;;;;;-0.44;96.06;93826.66;6124033;23;20171;-81
2022/12/14 10:21:04;;;;;;;22.93;16.53;;;;;;;-0.53;97.66;93825.03;6125039;23;20164;-81
2022/12/14 10:23:32;;;;;;;23.93;16.30;;;;;;;-0.61;98.54;93806.53;6124601;23;20160;-80
2022/12/14 10:26:07;;;;;;;23.50;16.30;;;;;;;-0.60;99.26;93808.91;6124602;23;20156;-82
2022/12/14 10:28:43;;;;;;;25.70;16.97;;;;;;;-0.63;99.53;93799.13;6123587;23;20187;-82
2022/12/14 10:31:15;;;;;;;28.07;17.30;;;;;;;-0.56;99.98;93800.06;6124148;23;20167;-82
2022/12/14 10:33:44;;;;;;;24.87;17.00;;;;;;;-0.45;98.68;93796.47;6124256;23;20195;-82
2022/12/14 10:36:19;;;;;;;25.53;17.73;;;;;;;-0.38;99.03;93790.63;6124816;23;20196;-81
2022/12/14 10:38:53;;;;;;;25.07;17.13;;;;;;;-0.43;99.37;93800.44;6122667;23;20850;-81
2022/12/14 10:41:30;;;;;;;23.80;17.30;;;;;;;-0.30;98.96;93804.25;6124424;23;20160;-81
2022/12/14 10:44:05;;;;;;;21.10;15.90;;;;;;;-0.38;100.00;93803.28;6123591;23;20282;-82
2022/12/14 10:46:42;;;;;;;25.50;17.53;;;;;;;-0.45;100.00;93809.91;6124529;23;20163;-81
2022/12/14 10:49:14;;;;;;;141.17;80.90;;;;;;;-0.39;100.00;93819.41;6122832;23;20167;-81
2022/12/14 10:51:45;;;;;;;27.03;20.23;;;;;;;-0.30;99.59;93814.38;6123681;23;20164;-81
2022/12/14 10:54:22;;;;;;;25.73;18.07;;;;;;;-0.22;100.00;93802.56;6123754;23;20202;-81
2022/12/14 10:56:50;;;;;;;24.13;16.60;;;;;;;-0.19;99.57;93802.22;6124067;23;20183;-82
2022/12/14 10:59:25;;;;;;;26.80;17.87;;;;;;;-0.14;99.21;93802.56;6123223;23;20187;-82
2022/12/14 11:01:58;;;;;;;25.23;17.43;;;;;;;-0.20;99.70;93795.59;6124125;23;20159;-82
2022/12/14 11:04:34;;;;;;;20.57;16.37;;;;;;;-0.25;100.00;93794.47;6123663;23;20206;-81
2022/12/14 11:07:03;;;;;;;21.57;16.10;;;;;;;-0.25;99.17;93789.41;6124013;23;20167;-80
2022/12/14 11:09:30;;;;;;;22.77;15.77;;;;;;;-0.24;100.00;93780.91;6122005;23;20182;-80
2022/12/14 11:12:03;;;;;;;23.37;16.83;;;;;;;-0.24;100.00;93776.63;6124089;23;20176;-81
2022/12/14 11:14:30;;;;;;;21.77;16.20;;;;;;;-0.16;100.00;93785.94;6123822;23;20195;-82
2022/12/14 11:16:58;;;;;;;22.53;16.37;;;;;;;-0.10;100.00;93798.78;6123213;23;20176;-81
2022/12/14 11:19:26;;;;;;;23.97;16.80;;;;;;;0.00;99.10;93789.28;6122799;23;20175;-79
2022/12/14 11:22:09;;;;;;;21.80;16.30;;;;;;;0.02;99.57;93771.44;6123828;23;20175;-80
2022/12/14 11:24:44;;;;;;;25.37;17.47;;;;;;;0.09;100.00;93764.00;6123784;23;20196;-82
2022/12/14 11:27:11;;;;;;;23.30;16.73;;;;;;;0.18;99.73;93768.94;6123580;23;20471;-81
2022/12/14 11:29:44;;;;;;;23.17;16.93;;;;;;;0.32;97.99;93775.88;6122648;23;20175;-82
2022/12/14 11:32:19;;;;;;;19.60;15.43;;;;;;;0.45;96.54;93779.66;6122992;23;20564;-82
2022/12/14 11:34:55;;;;;;;21.53;15.80;;;;;;;0.56;95.25;93779.34;6123105;23;20205;-80
2022/12/14 11:37:24;;;;;;;179.77;108.50;;;;;;;0.54;96.17;93779.50;6122324;23;20168;-82
2022/12/14 11:39:53;;;;;;;38.57;26.53;;;;;;;0.61;94.67;93772.03;6122943;23;20167;-81
2022/12/14 11:42:21;;;;;;;38.53;25.50;;;;;;;0.66;94.81;93760.47;6123532;23;20182;-82
2022/12/14 11:44:49;;;;;;;29.87;19.60;;;;;;;0.68;94.69;93750.19;6123048;23;20201;-81
2022/12/14 11:47:19;;;;;;;23.43;16.10;;;;;;;0.55;97.44;93737.25;6123971;23;20180;-81
2022/12/14 11:49:47;;;;;;;24.87;17.30;;;;;;;0.62;97.47;93738.16;6126426;23;20183;-80
2022/12/14 11:52:17;;;;;;;21.80;16.93;;;;;;;0.64;97.60;93742.13;6124995;23;20608;-82
2022/12/14 11:54:45;;;;;;;21.93;16.13;;;;;;;0.71;97.40;93749.88;6124794;23;20274;-82
2022/12/14 11:57:21;;;;;;;20.27;15.87;;;;;;;0.81;96.74;93752.22;6122740;23;20199;-81
2022/12/14 11:59:51;;;;;;;23.77;17.23;;;;;;;0.83;96.25;93748.56;6124919;23;20160;-80
2022/12/14 12:02:25;;;;;;;22.07;16.63;;;;;;;0.88;94.27;93764.06;6125121;23;20163;-82
2022/12/14 12:04:55;;;;;;;23.67;16.90;;;;;;;0.91;94.36;93758.69;6124850;23;20501;-80
2022/12/14 12:07:27;;;;;;;27.33;17.80;;;;;;;0.90;94.92;93763.91;6124870;23;20180;-80
2022/12/14 12:09:54;;;;;;;22.30;17.20;;;;;;;0.93;94.30;93769.44;6123078;23;20161;-80
2022/12/14 12:12:22;;;;;;;26.87;17.83;;;;;;;0.88;97.58;93766.59;6125295;23;20562;-82
2022/12/14 12:14:55;;;;;;;27.17;17.87;;;;;;;0.89;96.16;93747.13;6124472;23;20290;-81
2022/12/14 12:17:38;;;;;;;28.00;18.73;;;;;;;0.91;95.51;93733.34;6124169;23;20168;-82
2022/12/14 12:20:23;;;;;;;28.03;18.00;;;;;;;0.95;94.92;93741.44;6124481;23;20163;-82
2022/12/14 12:22:56;;;;;;;26.90;18.33;;;;;;;1.00;95.26;93746.78;6124400;23;20191;-82
2022/12/14 12:25:24;;;;;;;30.17;20.87;;;;;;;0.97;97.37;93744.56;6123082;23;20688;-82
2022/12/14 12:27:59;;;;;;;60.97;39.23;;;;;;;0.96;98.04;93733.63;6123627;23;20183;-82
2022/12/14 12:30:28;;;;;;;41.80;29.10;;;;;;;0.96;98.52;93736.16;6124533;23;20171;-81
2022/12/14 12:33:02;;;;;;;29.93;21.20;;;;;;;0.98;98.49;93736.00;6123695;23;20626;-80
2022/12/14 12:35:36;;;;;;;29.33;21.23;;;;;;;1.02;99.60;93735.53;6124206;23;20199;-82
2022/12/14 12:38:08;;;;;;;29.17;19.47;;;;;;;1.07;97.81;93735.03;6123502;23;20206;-80
2022/12/14 12:40:43;;;;;;;28.73;19.70;;;;;;;1.09;97.82;93725.53;6123283;23;20223;-81
2022/12/14 12:43:18;;;;;;;24.90;17.53;;;;;;;1.09;97.98;93724.75;6124258;23;20166;-82
2022/12/14 12:45:48;;;;;;;24.67;17.77;;;;;;;1.11;96.60;93712.69;6123231;23;20156;-82
2022/12/14 12:48:21;;;;;;;24.20;17.13;;;;;;;1.12;95.91;93730.28;6123137;23;20167;-82
2022/12/14 12:50:51;;;;;;;25.77;18.23;;;;;;;1.09;97.77;93712.88;6123996;23;20163;-82
2022/12/14 12:53:25;;;;;;;26.80;18.17;;;;;;;0.98;100.00;93738.53;6123935;23;20179;-80
2022/12/14 12:55:55;;;;;;;26.90;19.07;;;;;;;0.91;100.00;93713.09;6123948;23;20180;-81
2022/12/14 12:58:25;;;;;;;25.60;18.83;;;;;;;0.92;100.00;93724.81;6123386;23;20187;-81
2022/12/14 13:00:59;;;;;;;24.90;17.87;;;;;;;0.97;100.00;93726.81;6123416;23;20614;-82
2022/12/14 13:03:31;;;;;;;29.83;18.43;;;;;;;0.96;100.00;93722.75;6123952;23;20174;-82
2022/12/14 13:06:11;;;;;;;27.37;18.53;;;;;;;0.99;100.00;93735.06;6122950;23;20166;-82
2022/12/14 13:08:43;;;;;;;26.03;18.97;;;;;;;1.06;100.00;93735.19;6122424;23;20159;-82
2022/12/14 13:11:16;;;;;;;26.53;18.40;;;;;;;1.12;99.00;93745.47;6123685;23;20170;-83
2022/12/14 13:13:47;;;;;;;26.87;18.93;;;;;;;1.13;99.94;93752.13;6123670;23;20200;-83
2022/12/14 13:16:18;;;;;;;27.67;19.00;;;;;;;1.13;100.00;93758.94;6123852;23;20188;-81
2022/12/14 13:18:50;;;;;;;26.37;19.23;;;;;;;1.10;100.00;93770.19;6122600;23;20160;-81
2022/12/14 13:21:28;;;;;;;26.53;18.77;;;;;;;1.10;100.00;93774.47;6122832;23;20514;-81
2022/12/14 13:23:54;;;;;;;43.33;30.27;;;;;;;1.09;100.00;93775.41;6112715;23;20203;-82
2022/12/14 13:26:39;;;;;;;34.67;24.17;;;;;;;1.11;100.00;93776.06;6124001;23;20178;-80
2022/12/14 13:29:16;;;;;;;33.47;20.50;;;;;;;1.09;100.00;93770.34;6123561;23;20219;-81
2022/12/14 13:31:51;;;;;;;26.17;18.43;;;;;;;1.11;100.00;93771.78;6124078;23;20160;-82
2022/12/14 13:34:29;;;;;;;25.63;18.67;;;;;;;1.11;100.00;93786.97;6123333;23;20209;-81
2022/12/14 13:37:34;;;;;;;26.83;18.53;;;;;;;1.07;100.00;93795.84;6123811;23;20184;-82
2022/12/14 13:40:27;;;;;;;27.47;19.07;;;;;;;1.03;99.96;93799.66;6078278;23;20176;-82
2022/12/14 13:43:05;;;;;;;24.13;17.37;;;;;;;1.06;99.70;93791.72;6123920;23;20171;-80
2022/12/14 13:45:37;;;;;;;24.17;17.43;;;;;;;1.10;98.32;93792.22;6123071;23;20195;-80
2022/12/14 13:48:07;;;;;;;22.43;16.77;;;;;;;1.06;98.26;93778.28;6123421;23;20160;-81
2022/12/14 13:50:38;;;;;;;24.23;18.00;;;;;;;1.09;98.04;93791.41;6123466;23;20182;-82
2022/12/14 13:53:11;;;;;;;22.63;17.47;;;;;;;1.06;98.02;93780.81;6122781;23;20171;-82
2022/12/14 13:55:40;;;;;;;22.27;17.00;;;;;;;1.07;97.31;93790.00;6123309;23;20199;-81
2022/12/14 13:58:12;;;;;;;21.83;16.07;;;;;;;1.08;97.33;93792.38;6123052;23;20175;-82
2022/12/14 14:00:54;;;;;;;22.63;16.90;;;;;;;0.99;98.37;93783.97;6123058;23;20164;-82
2022/12/14 14:03:56;;;;;;;21.97;16.60;;;;;;;0.96;98.64;93793.69;6123412;23;20199;-82
2022/12/14 14:06:40;;;;;;;21.97;16.37;;;;;;;1.00;98.94;93780.50;6123633;23;20156;-82
2022/12/14 14:09:58;;;;;;;26.37;17.13;;;;;;;1.07;97.79;93784.94;6121473;23;20214;-80
2022/12/14 14:12:48;;;;;;;18.30;14.57;;;;;;;1.13;96.85;93779.22;6123313;23;20233;-81
2022/12/14 14:15:36;;;;;;;19.83;15.43;;;;;;;1.10;98.44;93777.78;6123132;23;20200;-81
2022/12/14 14:18:13;;;;;;;24.63;17.27;;;;;;;1.06;98.77;93784.13;6123704;23;20537;-81
2022/12/14 14:20:41;;;;;;;24.77;18.87;;;;;;;1.07;98.79;93807.72;6124697;23;20163;-82
2022/12/14 14:23:32;;;;;;;22.73;16.93;;;;;;;1.01;100.00;93766.09;6124905;23;20176;-82
2022/12/14 14:26:24;;;;;;;20.47;16.40;;;;;;;1.04;100.00;93758.16;6124090;23;20179;-82
2022/12/14 14:29:09;;;;;;;23.27;16.97;;;;;;;1.08;100.00;93761.16;6102847;23;20186;-81
2022/12/14 14:31:45;;;;;;;23.70;17.70;;;;;;;1.08;99.39;93763.69;6124238;23;20170;-82
2022/12/14 14:34:18;;;;;;;24.07;17.27;;;;;;;1.14;99.40;93765.59;6124770;23;20266;-81
2022/12/14 14:36:45;;;;;;;22.90;16.90;;;;;;;1.17;100.00;93783.75;6124172;23;20180;-82
2022/12/14 14:39:30;;;;;;;24.87;17.97;;;;;;;1.20;100.00;93782.66;6123490;23;20661;-82
2022/12/14 14:41:58;;;;;;;24.43;17.90;;;;;;;1.27;100.00;93776.78;6125368;23;20544;-82
2022/12/14 14:44:34;;;;;;;26.30;18.90;;;;;;;1.27;100.00;93771.72;6124604;23;20196;-81
2022/12/14 14:47:01;;;;;;;23.43;18.30;;;;;;;1.29;99.99;93781.69;6124844;23;20156;-82
2022/12/14 14:49:31;;;;;;;26.07;18.20;;;;;;;1.27;100.00;93771.72;6124893;23;20187;-81
2022/12/14 14:52:37;;;;;;;35.90;26.00;;;;;;;1.31;99.30;93780.56;6124501;23;20368;-82
2022/12/14 14:55:37;;;;;;;30.83;19.80;;;;;;;1.33;100.00;93782.94;6124619;23;20201;-80
2022/12/14 14:58:20;;;;;;;28.80;20.27;;;;;;;1.31;100.00;93792.44;6124650;23;20178;-82
2022/12/14 15:00:50;;;;;;;27.20;19.70;;;;;;;1.33;100.00;93793.09;6125347;23;20479;-82
2022/12/14 15:03:21;;;;;;;26.70;18.97;;;;;;;1.37;100.00;93792.56;6124549;23;20180;-82
2022/12/14 15:05:48;;;;;;;26.83;19.93;;;;;;;1.40;100.00;93791.44;6124959;23;20244;-82
2022/12/14 15:08:19;;;;;;;29.23;19.53;;;;;;;1.43;100.00;93793.66;6123637;23;20180;-80
2022/12/14 15:10:47;;;;;;;28.60;19.97;;;;;;;1.45;100.00;93789.22;6122802;23;20618;-82
2022/12/14 15:13:20;;;;;;;32.97;21.37;;;;;;;1.48;100.00;93788.09;6125714;23;20179;-81
2022/12/14 15:15:51;;;;;;;23.27;15.70;;;;;;;1.67;100.00;93777.53;6123372;23;20160;-87
2022/12/14 15:18:22;;;;;;;28.90;20.37;;;;;;;2.34;100.00;93767.56;6123685;23;20245;-81
2022/12/14 15:21:02;;;;;;;23.53;19.20;;;;;;;2.42;100.00;93772.59;6124231;23;20531;-81
2022/12/14 15:23:35;;;;;;;27.43;19.60;;;;;;;2.34;100.00;93775.97;6123542;23;20160;-82
2022/12/14 15:26:05;;;;;;;26.57;19.37;;;;;;;2.24;100.00;93780.50;6123350;23;20214;-81
2022/12/14 15:28:33;;;;;;;31.07;23.37;;;;;;;2.17;100.00;93777.06;6123086;23;20187;-82
2022/12/14 15:31:00;;;;;;;33.20;23.10;;;;;;;2.10;100.00;93778.72;6123486;23;20186;-82
2022/12/14 15:33:31;;;;;;;39.17;27.63;;;;;;;2.02;100.00;93782.09;6123871;23;20176;-81
2022/12/14 15:36:03;;;;;;;32.77;22.60;;;;;;;1.94;100.00;93796.56;6122476;23;20606;-82
2022/12/14 15:38:32;;;;;;;32.33;22.60;;;;;;;1.93;100.00;93794.97;6122403;23;20184;-81
2022/12/14 15:41:02;;;;;;;30.80;21.80;;;;;;;1.93;100.00;93794.97;6123573;23;20190;-82
2022/12/14 15:43:29;;;;;;;34.63;21.80;;;;;;;1.93;100.00;93795.78;6122713;23;20168;-81
2022/12/14 15:45:59;;;;;;;31.47;21.67;;;;;;;1.93;100.00;93800.06;6123272;23;20231;-81
2022/12/14 15:48:29;;;;;;;30.57;22.37;;;;;;;1.91;100.00;93810.41;6123067;23;20176;-81
2022/12/14 15:50:58;;;;;;;29.57;19.60;;;;;;;1.88;100.00;93813.25;6122750;23;20246;-81
2022/12/14 15:53:29;;;;;;;28.03;20.77;;;;;;;1.88;100.00;93815.00;6122249;23;20657;-82
2022/12/14 15:55:59;;;;;;;29.20;21.23;;;;;;;1.88;100.00;93815.00;6122595;23;20199;-80
2022/12/14 15:58:29;;;;;;;29.83;21.87;;;;;;;1.91;100.00;93817.22;6122985;23;20259;-81
2022/12/14 16:01:00;;;;;;;27.87;21.00;;;;;;;1.92;100.00;93821.34;6123249;23;20164;-82
2022/12/14 16:03:31;;;;;;;27.47;20.23;;;;;;;1.95;100.00;93821.78;6122834;23;20195;-81
2022/12/14 16:05:59;;;;;;;31.77;21.07;;;;;;;1.91;100.00;93823.09;6122817;23;20156;-82
2022/12/14 16:08:27;;;;;;;59.73;39.07;;;;;;;2.00;100.00;93816.19;6122038;23;20179;-81
2022/12/14 16:11:05;;;;;;;48.63;34.93;;;;;;;2.05;100.00;93821.56;6122775;23;20228;-81
2022/12/14 16:13:36;;;;;;;46.63;33.60;;;;;;;2.06;100.00;93835.84;6123695;23;20610;-82
2022/12/14 16:16:09;;;;;;;42.93;30.43;;;;;;;2.00;100.00;93844.91;6122376;23;20186;-82
2022/12/14 16:18:38;;;;;;;30.80;23.37;;;;;;;1.96;100.00;93841.13;6122836;23;20167;-82
2022/12/14 16:21:05;;;;;;;35.90;23.73;;;;;;;1.97;100.00;93846.97;6122383;23;20195;-80